Time;durP1;ratioP1;P1;durP2;ratioP2;P2;SDS_P1;SDS_P2;PMS_P1;PMS_P2;Temp;Humidity;BMP_temperature;BMP_pressure;BME280_temperature;BME280_humidity;BME280_pressure;Samples;Min_cycle;Max_cycle;Signal;HPM_P1;HPM_P2
2021/09/09 00:02:04;;;;;;;11.23;8.95;;;17.00;99.90;;;;;;5060628;28;20053;-59
2021/09/09 00:04:31;;;;;;;11.02;9.05;;;17.00;99.90;;;;;;5070600;28;20571;-59
2021/09/09 00:06:57;;;;;;;10.93;8.68;;;17.00;99.90;;;;;;5067964;28;20056;-60
2021/09/09 00:09:23;;;;;;;11.55;9.68;;;17.00;99.90;;;;;;5069210;28;20059;-59
2021/09/09 00:11:50;;;;;;;11.90;9.45;;;17.00;99.90;;;;;;5067584;28;20044;-59
2021/09/09 00:14:18;;;;;;;10.07;8.95;;;17.00;99.90;;;;;;5067311;28;20052;-59
2021/09/09 00:16:44;;;;;;;10.80;9.07;;;16.90;99.90;;;;;;5068654;28;20048;-59
2021/09/09 00:19:11;;;;;;;13.43;10.15;;;16.90;99.90;;;;;;5067761;28;20416;-59
2021/09/09 00:21:41;;;;;;;13.57;10.10;;;16.90;99.90;;;;;;5065464;28;20053;-59
2021/09/09 00:24:09;;;;;;;11.25;9.68;;;16.80;99.90;;;;;;5070950;28;20087;-59
2021/09/09 00:26:36;;;;;;;11.32;9.57;;;16.70;99.90;;;;;;5063074;28;20131;-59
2021/09/09 00:29:02;;;;;;;10.93;9.27;;;16.80;99.90;;;;;;5068755;28;20102;-59
2021/09/09 00:31:28;;;;;;;13.45;9.85;;;16.80;99.90;;;;;;5070071;28;20071;-59
2021/09/09 00:33:54;;;;;;;10.25;9.18;;;16.70;99.90;;;;;;5065918;28;20044;-59
2021/09/09 00:36:21;;;;;;;11.48;10.15;;;16.70;99.90;;;;;;5064964;28;20505;-59
2021/09/09 00:38:47;;;;;;;13.27;9.95;;;16.60;99.90;;;;;;5066264;28;20413;-59
2021/09/09 00:41:13;;;;;;;13.13;10.35;;;16.50;99.90;;;;;;5067259;28;20116;-59
2021/09/09 00:43:39;;;;;;;11.75;10.23;;;16.50;99.90;;;;;;5067068;28;20128;-59
2021/09/09 00:46:05;;;;;;;12.95;10.02;;;16.50;99.90;;;;;;5068659;28;20756;-59
2021/09/09 00:48:33;;;;;;;12.98;10.43;;;16.40;99.90;;;;;;5062979;28;20057;-59
2021/09/09 00:50:59;;;;;;;11.63;10.43;;;16.40;99.90;;;;;;5065139;28;20074;-59
2021/09/09 00:53:26;;;;;;;12.48;10.93;;;16.40;99.90;;;;;;5063092;28;20055;-59
2021/09/09 00:55:52;;;;;;;13.18;9.65;;;16.40;99.90;;;;;;5065861;28;20076;-59
2021/09/09 00:58:20;;;;;;;12.38;11.05;;;16.30;99.90;;;;;;5069368;28;20504;-59
2021/09/09 01:00:49;;;;;;;14.35;11.27;;;16.30;99.90;;;;;;5063865;28;20535;-59
2021/09/09 01:03:15;;;;;;;12.52;10.98;;;16.30;99.90;;;;;;5057824;28;20056;-59
2021/09/09 01:05:41;;;;;;;12.20;10.48;;;16.20;99.90;;;;;;5063998;28;20084;-59
2021/09/09 01:08:07;;;;;;;13.85;10.88;;;16.20;99.90;;;;;;5066398;28;20140;-59
2021/09/09 01:10:34;;;;;;;11.07;9.80;;;16.20;99.90;;;;;;5065481;28;20108;-59
2021/09/09 01:13:00;;;;;;;12.05;10.65;;;16.20;99.90;;;;;;5066884;28;20051;-59
2021/09/09 01:15:29;;;;;;;12.52;11.07;;;16.10;99.90;;;;;;5066915;28;20056;-59
2021/09/09 01:17:55;;;;;;;13.00;10.95;;;16.10;99.90;;;;;;5067255;28;20048;-59
2021/09/09 01:20:21;;;;;;;11.82;10.50;;;16.10;99.90;;;;;;5094646;27;20053;-59
2021/09/09 01:22:51;;;;;;;13.27;11.30;;;16.10;99.90;;;;;;5065362;28;20060;-59
2021/09/09 01:25:19;;;;;;;12.43;11.13;;;16.00;99.90;;;;;;5065243;28;20130;-58
2021/09/09 01:27:45;;;;;;;13.70;11.77;;;16.10;99.90;;;;;;5067633;28;20053;-59
2021/09/09 01:30:12;;;;;;;13.18;11.77;;;16.00;99.90;;;;;;5066909;28;20052;-58
2021/09/09 01:32:38;;;;;;;12.75;11.35;;;16.00;99.90;;;;;;5066103;28;20053;-58
2021/09/09 01:35:06;;;;;;;13.60;11.27;;;15.90;99.90;;;;;;5064632;28;20058;-58
2021/09/09 01:37:35;;;;;;;15.38;11.30;;;15.90;99.90;;;;;;5065119;28;20055;-58
2021/09/09 01:40:01;;;;;;;13.73;11.57;;;15.90;99.90;;;;;;5066883;28;20052;-58
2021/09/09 01:42:27;;;;;;;13.05;11.30;;;15.80;99.90;;;;;;5064113;28;20049;-59
2021/09/09 01:44:53;;;;;;;14.27;11.27;;;15.80;99.90;;;;;;5067248;28;20098;-58
2021/09/09 01:47:20;;;;;;;15.50;11.88;;;15.80;99.90;;;;;;5065423;28;20067;-58
2021/09/09 01:49:46;;;;;;;14.60;11.93;;;15.70;99.90;;;;;;5061840;28;20132;-58
2021/09/09 01:52:12;;;;;;;13.10;11.70;;;15.70;99.90;;;;;;5067419;28;20049;-58
2021/09/09 01:54:38;;;;;;;13.77;11.63;;;15.70;99.90;;;;;;5059950;28;20643;-58
2021/09/09 01:57:05;;;;;;;13.15;11.68;;;15.70;99.90;;;;;;5068377;28;20040;-59
2021/09/09 01:59:31;;;;;;;13.57;12.05;;;15.70;99.90;;;;;;5069982;28;20052;-58
2021/09/09 02:01:57;;;;;;;15.18;11.57;;;15.60;99.90;;;;;;5063907;28;20048;-58
2021/09/09 02:04:27;;;;;;;17.05;13.20;;;15.60;99.90;;;;;;5067262;28;20110;-59
2021/09/09 02:06:53;;;;;;;14.57;12.43;;;15.60;99.90;;;;;;5066669;28;20056;-59
2021/09/09 02:09:19;;;;;;;13.40;12.10;;;15.60;99.90;;;;;;5064828;28;20432;-59
2021/09/09 02:11:45;;;;;;;15.30;11.93;;;15.60;99.90;;;;;;5071151;28;20091;-59
2021/09/09 02:14:11;;;;;;;14.60;12.23;;;15.60;99.90;;;;;;5068087;28;20690;-58
2021/09/09 02:16:37;;;;;;;14.63;13.02;;;15.60;99.90;;;;;;5065424;28;20479;-59
2021/09/09 02:19:03;;;;;;;15.32;12.60;;;15.60;99.90;;;;;;5065705;28;20052;-58
2021/09/09 02:21:30;;;;;;;13.57;12.18;;;15.60;99.90;;;;;;5065491;28;20047;-58
2021/09/09 02:23:58;;;;;;;14.10;12.50;;;15.50;99.90;;;;;;5065289;28;20140;-58
2021/09/09 02:26:27;;;;;;;15.20;12.60;;;15.60;99.90;;;;;;5066876;28;20055;-58
2021/09/09 02:28:53;;;;;;;15.10;13.07;;;15.60;99.90;;;;;;5067929;28;20113;-59
2021/09/09 02:31:19;;;;;;;14.75;12.70;;;15.50;99.90;;;;;;5065099;28;20064;-59
2021/09/09 02:33:45;;;;;;;15.57;13.10;;;15.40;99.90;;;;;;5063309;28;20052;-58
2021/09/09 02:36:13;;;;;;;14.30;12.90;;;15.40;99.90;;;;;;5067643;28;20131;-58
2021/09/09 02:38:39;;;;;;;14.10;12.60;;;15.40;99.90;;;;;;5063032;28;20078;-58
2021/09/09 02:41:05;;;;;;;14.73;13.23;;;15.40;99.90;;;;;;5067066;28;20052;-59
2021/09/09 02:43:32;;;;;;;14.93;13.07;;;15.40;99.90;;;;;;5066571;28;20048;-58
2021/09/09 02:45:58;;;;;;;15.20;13.50;;;15.40;99.90;;;;;;5065585;28;20036;-58
2021/09/09 02:48:24;;;;;;;15.35;13.05;;;15.40;99.90;;;;;;5065508;28;20071;-58
2021/09/09 02:50:50;;;;;;;14.55;12.88;;;15.30;99.90;;;;;;5066317;28;20056;-58
2021/09/09 02:53:16;;;;;;;17.30;13.38;;;15.30;99.90;;;;;;5095499;28;20063;-58
2021/09/09 02:55:42;;;;;;;15.52;14.00;;;15.30;99.90;;;;;;5064145;28;20481;-58
2021/09/09 02:58:09;;;;;;;14.25;12.77;;;15.30;99.90;;;;;;5066254;28;20913;-59
2021/09/09 03:00:35;;;;;;;15.50;13.98;;;15.20;99.90;;;;;;5064423;28;20064;-58
2021/09/09 03:03:01;;;;;;;14.38;12.88;;;15.10;99.90;;;;;;5058890;28;20702;-59
2021/09/09 03:05:27;;;;;;;17.27;13.85;;;15.10;99.90;;;;;;5062274;28;20049;-58
2021/09/09 03:07:53;;;;;;;16.55;13.55;;;15.10;99.90;;;;;;5096658;28;20060;-58
2021/09/09 03:10:19;;;;;;;14.90;13.25;;;15.00;99.90;;;;;;5064621;28;20132;-58
2021/09/09 03:12:48;;;;;;;16.15;14.45;;;15.00;99.90;;;;;;5061891;28;20044;-58
2021/09/09 03:15:14;;;;;;;15.80;14.20;;;14.90;99.90;;;;;;5062084;28;20135;-58
2021/09/09 03:17:40;;;;;;;16.88;14.38;;;14.90;99.90;;;;;;5066392;28;20084;-59
2021/09/09 03:20:07;;;;;;;15.63;13.52;;;14.90;99.90;;;;;;5067482;28;20050;-59
2021/09/09 03:22:33;;;;;;;16.33;14.13;;;14.90;99.90;;;;;;5057275;28;20071;-58
2021/09/09 03:25:02;;;;;;;16.92;14.73;;;14.90;99.90;;;;;;5059756;28;20102;-58
2021/09/09 03:27:29;;;;;;;16.58;14.90;;;14.90;99.90;;;;;;5064701;28;20053;-59
2021/09/09 03:29:55;;;;;;;16.00;14.27;;;14.90;99.90;;;;;;5066357;28;20114;-59
2021/09/09 03:32:21;;;;;;;15.23;13.57;;;14.80;99.90;;;;;;5067945;28;20079;-59
2021/09/09 03:34:47;;;;;;;16.17;14.05;;;14.80;99.90;;;;;;5068980;28;20052;-59
2021/09/09 03:37:13;;;;;;;18.33;15.32;;;14.80;99.90;;;;;;5064949;28;20098;-60
2021/09/09 03:39:39;;;;;;;17.70;14.13;;;14.80;99.90;;;;;;5068912;28;20126;-59
2021/09/09 03:42:08;;;;;;;19.63;15.23;;;14.80;99.90;;;;;;5068594;28;20051;-59
2021/09/09 03:44:34;;;;;;;16.38;14.75;;;14.70;99.90;;;;;;5066666;28;20106;-60
2021/09/09 03:47:03;;;;;;;17.90;16.02;;;14.70;99.90;;;;;;5072400;28;20056;-59
2021/09/09 03:49:29;;;;;;;17.95;15.63;;;14.70;99.90;;;;;;5072950;28;20044;-59
2021/09/09 03:51:58;;;;;;;19.60;16.52;;;14.70;99.90;;;;;;5064585;28;20044;-59
2021/09/09 03:54:24;;;;;;;20.50;15.90;;;14.70;99.90;;;;;;5051544;28;20561;-59
2021/09/09 03:56:50;;;;;;;19.27;16.48;;;14.70;99.90;;;;;;5062987;28;20041;-59
2021/09/09 03:59:19;;;;;;;19.83;16.23;;;14.70;99.90;;;;;;5065239;28;20090;-59
2021/09/09 04:01:45;;;;;;;17.48;15.15;;;14.70;99.90;;;;;;5068252;28;20103;-59
2021/09/09 04:04:11;;;;;;;17.10;15.27;;;14.70;99.90;;;;;;5065495;28;20582;-59
2021/09/09 04:06:37;;;;;;;18.20;15.07;;;14.60;99.90;;;;;;5068902;28;20072;-59
2021/09/09 04:09:04;;;;;;;18.30;16.10;;;14.60;99.90;;;;;;5071723;28;20098;-58
2021/09/09 04:11:36;;;;;;;19.50;16.75;;;14.60;99.90;;;;;;5069364;28;20052;-59
2021/09/09 04:14:03;;;;;;;20.33;15.93;;;14.60;99.90;;;;;;5067724;28;20583;-58
2021/09/09 04:16:29;;;;;;;20.75;15.77;;;14.60;99.90;;;;;;5068128;28;20052;-59
2021/09/09 04:18:55;;;;;;;17.83;15.95;;;14.60;99.90;;;;;;5068253;28;20074;-58
2021/09/09 04:21:22;;;;;;;19.00;16.45;;;14.50;99.90;;;;;;5068420;28;20587;-59
2021/09/09 04:23:48;;;;;;;20.55;17.73;;;14.50;99.90;;;;;;5068076;28;20061;-59
2021/09/09 04:26:15;;;;;;;19.50;17.40;;;14.50;99.90;;;;;;5064420;28;20084;-58
2021/09/09 04:28:41;;;;;;;19.70;17.40;;;14.40;99.90;;;;;;5065975;28;20595;-58
2021/09/09 04:31:09;;;;;;;19.67;17.60;;;14.40;99.90;;;;;;5066921;28;20049;-59
2021/09/09 04:33:35;;;;;;;21.17;16.55;;;14.40;99.90;;;;;;5066187;28;20044;-58
2021/09/09 04:36:04;;;;;;;19.95;17.60;;;14.40;99.90;;;;;;5068143;28;20114;-59
2021/09/09 04:38:40;;;;;;;21.25;16.60;;;14.40;99.90;;;;;;5065328;28;20055;-58
2021/09/09 04:41:06;;;;;;;19.90;17.90;;;14.40;99.90;;;;;;5068829;28;20066;-59
2021/09/09 04:43:34;;;;;;;21.08;18.42;;;14.40;99.90;;;;;;5067517;28;20084;-59
2021/09/09 04:46:01;;;;;;;19.85;17.85;;;14.40;99.90;;;;;;5066169;28;20052;-59
2021/09/09 04:48:27;;;;;;;20.98;18.75;;;14.30;99.90;;;;;;5064176;28;20057;-59
2021/09/09 04:50:53;;;;;;;22.45;17.05;;;14.30;99.90;;;;;;5065275;28;20068;-59
2021/09/09 04:53:19;;;;;;;18.92;16.60;;;14.20;99.90;;;;;;5066194;28;20052;-59
2021/09/09 04:55:46;;;;;;;19.60;17.52;;;14.20;99.90;;;;;;5066835;28;20500;-58
2021/09/09 04:58:12;;;;;;;21.55;18.38;;;14.20;99.90;;;;;;5068139;28;20060;-59
2021/09/09 05:00:38;;;;;;;20.13;17.67;;;14.20;99.90;;;;;;5066220;28;20489;-58
2021/09/09 05:03:07;;;;;;;20.50;17.73;;;14.20;99.90;;;;;;5064568;28;20094;-56
2021/09/09 05:05:36;;;;;;;23.60;19.17;;;14.10;99.90;;;;;;5063743;28;20549;-56
2021/09/09 05:08:02;;;;;;;20.33;18.25;;;14.20;99.90;;;;;;5028014;28;20054;-58
2021/09/09 05:10:28;;;;;;;19.90;17.80;;;14.20;99.90;;;;;;5063728;28;20100;-56
2021/09/09 05:12:55;;;;;;;23.50;20.95;;;14.20;99.90;;;;;;5061145;28;20059;-59
2021/09/09 05:15:24;;;;;;;21.52;18.98;;;14.20;99.90;;;;;;5060937;28;20053;-56
2021/09/09 05:17:50;;;;;;;21.25;18.42;;;14.20;99.90;;;;;;5060163;28;20052;-57
2021/09/09 05:20:17;;;;;;;21.15;18.90;;;14.20;99.90;;;;;;5067220;28;20389;-56
2021/09/09 05:22:43;;;;;;;27.20;24.23;;;14.20;99.90;;;;;;5060618;28;20060;-57
2021/09/09 05:25:10;;;;;;;22.58;19.15;;;14.30;99.90;;;;;;5061965;28;20052;-56
2021/09/09 05:27:36;;;;;;;24.35;19.73;;;14.30;99.90;;;;;;5065062;28;20159;-56
2021/09/09 05:30:10;;;;;;;22.98;20.30;;;14.30;99.90;;;;;;5063390;28;20052;-56
2021/09/09 05:32:37;;;;;;;21.92;19.52;;;14.30;99.90;;;;;;5064608;28;20684;-58
2021/09/09 05:35:04;;;;;;;22.73;20.45;;;14.30;99.90;;;;;;5063807;28;20048;-56
2021/09/09 05:37:30;;;;;;;22.35;18.88;;;14.30;99.90;;;;;;5061998;28;20530;-58
2021/09/09 05:39:56;;;;;;;23.45;20.13;;;14.30;99.90;;;;;;5057957;28;20052;-59
2021/09/09 05:42:25;;;;;;;23.85;20.13;;;14.40;99.90;;;;;;5061190;28;20083;-56
2021/09/09 05:44:52;;;;;;;21.88;19.58;;;14.50;99.90;;;;;;5062927;28;20092;-57
2021/09/09 05:47:18;;;;;;;22.83;20.45;;;14.50;99.90;;;;;;5061116;28;20751;-58
2021/09/09 05:49:44;;;;;;;21.88;18.60;;;14.70;99.90;;;;;;5066102;28;20049;-55
2021/09/09 05:52:13;;;;;;;22.77;19.58;;;14.80;99.90;;;;;;5061802;28;20091;-56
2021/09/09 05:54:39;;;;;;;21.65;18.45;;;14.90;99.90;;;;;;5060789;28;20504;-58
2021/09/09 05:57:06;;;;;;;19.77;17.67;;;15.00;99.90;;;;;;5058281;28;20204;-57
2021/09/09 05:59:32;;;;;;;21.27;19.08;;;15.10;99.90;;;;;;5060256;28;20455;-57
2021/09/09 06:01:58;;;;;;;19.15;17.17;;;15.30;99.90;;;;;;5067832;28;20044;-57
2021/09/09 06:04:27;;;;;;;18.58;16.75;;;15.40;99.90;;;;;;5062572;28;20088;-57
2021/09/09 06:06:56;;;;;;;18.48;16.40;;;15.60;99.90;;;;;;5062019;28;20040;-57
2021/09/09 06:09:23;;;;;;;16.90;15.10;;;15.60;99.90;;;;;;5060368;28;20060;-62
2021/09/09 06:11:49;;;;;;;22.10;19.75;;;15.70;99.90;;;;;;5062348;28;20088;-58
2021/09/09 06:14:18;;;;;;;20.50;18.30;;;15.90;99.90;;;;;;5065698;28;20736;-58
2021/09/09 06:16:46;;;;;;;18.73;16.73;;;16.00;99.90;;;;;;5065919;28;20049;-57
2021/09/09 06:19:15;;;;;;;20.13;15.93;;;16.20;99.90;;;;;;5062316;28;20056;-57
2021/09/09 06:21:41;;;;;;;18.80;16.90;;;16.40;99.90;;;;;;5064538;28;20091;-58
2021/09/09 06:24:07;;;;;;;21.88;19.60;;;16.50;99.90;;;;;;5066311;28;20048;-58
2021/09/09 06:26:34;;;;;;;19.23;17.42;;;16.90;99.90;;;;;;5063427;28;20051;-58
2021/09/09 06:29:00;;;;;;;19.23;16.98;;;17.10;99.90;;;;;;5066451;28;20529;-57
2021/09/09 06:31:28;;;;;;;21.02;18.80;;;17.30;99.90;;;;;;5061891;28;20054;-58
2021/09/09 06:33:54;;;;;;;17.92;15.80;;;17.50;99.90;;;;;;5064280;28;20045;-58
2021/09/09 06:36:20;;;;;;;18.38;16.50;;;17.60;99.90;;;;;;5061318;28;20060;-58
2021/09/09 06:38:46;;;;;;;18.15;16.20;;;17.80;99.90;;;;;;5062989;28;20048;-58
2021/09/09 06:41:14;;;;;;;18.25;15.60;;;18.00;99.90;;;;;;5061628;28;20048;-58
2021/09/09 06:43:41;;;;;;;17.63;15.57;;;18.20;99.90;;;;;;5063792;28;20051;-59
2021/09/09 06:46:07;;;;;;;18.67;16.77;;;18.30;99.90;;;;;;5064505;28;20056;-57
2021/09/09 06:48:33;;;;;;;17.65;15.90;;;18.60;99.90;;;;;;5060716;28;20049;-58
2021/09/09 06:51:01;;;;;;;17.52;15.35;;;18.80;99.90;;;;;;5065761;28;20059;-58
2021/09/09 06:53:28;;;;;;;18.17;15.30;;;19.10;99.90;;;;;;5063972;28;20053;-59
2021/09/09 06:55:56;;;;;;;17.15;15.30;;;19.50;99.90;;;;;;5063334;28;20118;-59
2021/09/09 06:58:25;;;;;;;17.65;15.13;;;19.70;99.90;;;;;;5042623;28;20053;-58
2021/09/09 07:00:51;;;;;;;17.50;15.80;;;20.00;99.90;;;;;;5058623;28;20056;-59
2021/09/09 07:03:17;;;;;;;16.95;15.25;;;20.20;99.90;;;;;;5043492;28;20071;-59
2021/09/09 07:05:44;;;;;;;18.17;16.35;;;20.50;99.90;;;;;;5062853;28;20084;-59
2021/09/09 07:08:10;;;;;;;18.33;16.48;;;20.80;99.90;;;;;;5066867;28;20054;-57
2021/09/09 07:10:44;;;;;;;16.63;15.02;;;21.10;99.90;;;;;;5061890;28;20770;-56
2021/09/09 07:13:10;;;;;;;;;;;21.20;99.90;;;;;;5068533;28;20049;-49
2021/09/09 07:15:38;;;;;;;24.23;21.90;;;21.30;99.90;;;;;;5072263;28;19970;-58
2021/09/09 07:18:06;;;;;;;79.85;71.80;;;21.50;99.90;;;;;;5065517;28;20056;-56
2021/09/09 07:20:34;;;;;;;19.70;16.80;;;21.90;99.90;;;;;;5070725;28;20048;-57
2021/09/09 07:23:04;;;;;;;22.75;19.40;;;22.40;99.90;;;;;;5045294;28;20128;-57
2021/09/09 07:25:30;;;;;;;29.92;26.73;;;22.70;99.90;;;;;;5065744;28;20126;-57
2021/09/09 07:27:59;;;;;;;30.33;27.25;;;23.10;99.90;;;;;;5052018;28;20056;-57
2021/09/09 07:30:27;;;;;;;19.33;17.45;;;23.40;99.90;;;;;;5067689;28;20052;-58
2021/09/09 07:32:53;;;;;;;52.88;47.80;;;23.50;99.90;;;;;;5057953;28;20041;-57
2021/09/09 07:35:25;;;;;;;27.40;23.33;;;23.80;99.90;;;;;;5069108;28;20048;-56
2021/09/09 07:38:00;;;;;;;29.77;26.83;;;23.90;99.90;;;;;;5052070;28;20071;-57
2021/09/09 07:40:32;;;;;;;22.05;19.60;;;24.10;99.90;;;;;;5098558;28;20110;-57
2021/09/09 07:43:01;;;;;;;21.83;19.77;;;24.30;99.90;;;;;;5052289;28;20088;-56
2021/09/09 07:45:32;;;;;;;20.42;18.33;;;24.60;99.90;;;;;;5051907;28;20115;-54
2021/09/09 07:48:03;;;;;;;17.88;16.08;;;24.60;97.00;;;;;;5051897;28;20068;-56
2021/09/09 07:50:30;;;;;;;25.83;23.27;;;24.40;99.80;;;;;;5060808;28;20135;-58
2021/09/09 07:52:58;;;;;;;21.63;19.55;;;24.50;99.60;;;;;;5070818;28;20606;-57
2021/09/09 07:55:25;;;;;;;18.52;16.38;;;24.70;98.70;;;;;;5065627;28;20133;-58
2021/09/09 07:57:51;;;;;;;19.83;17.90;;;24.90;97.50;;;;;;5058414;28;20401;-48
2021/09/09 08:00:18;;;;;;;18.80;16.85;;;24.90;97.50;;;;;;5068972;28;20056;-48
2021/09/09 08:02:44;;;;;;;33.97;30.75;;;25.10;95.20;;;;;;5069442;28;20048;-49
2021/09/09 08:05:11;;;;;;;29.05;26.13;;;25.20;94.50;;;;;;5071386;28;20064;-50
2021/09/09 08:07:44;;;;;;;29.45;26.52;;;25.40;93.90;;;;;;5068673;28;20059;-47
2021/09/09 08:10:15;;;;;;;24.83;22.38;;;25.50;89.10;;;;;;5068258;28;20060;-48
2021/09/09 08:12:46;;;;;;;18.20;16.20;;;26.10;91.50;;;;;;5068157;28;20804;-49
2021/09/09 08:15:13;;;;;;;26.92;24.20;;;26.50;90.70;;;;;;5051363;28;20052;-49
2021/09/09 08:17:40;;;;;;;19.02;17.13;;;26.90;88.50;;;;;;5069360;28;20063;-46
2021/09/09 08:20:07;;;;;;;16.25;14.07;;;27.20;84.50;;;;;;5068975;28;20045;-47
2021/09/09 08:22:34;;;;;;;18.58;16.67;;;27.30;81.80;;;;;;5070321;28;20166;-48
2021/09/09 08:25:05;;;;;;;18.75;16.95;;;27.30;80.00;;;;;;5070083;28;20186;-48
2021/09/09 08:27:32;;;;;;;33.88;30.58;;;27.50;76.80;;;;;;5069287;28;20056;-50
2021/09/09 08:29:59;;;;;;;20.45;18.45;;;27.50;75.80;;;;;;5067308;28;20051;-47
2021/09/09 08:32:25;;;;;;;28.35;25.65;;;27.40;74.40;;;;;;5069477;28;20526;-49
2021/09/09 08:34:54;;;;;;;16.52;15.02;;;27.70;70.20;;;;;;5067495;28;20045;-47
2021/09/09 08:37:21;;;;;;;16.17;14.48;;;27.50;71.40;;;;;;5061063;28;20052;-48
2021/09/09 08:39:47;;;;;;;15.43;13.85;;;27.30;72.60;;;;;;5069181;28;20505;-48
2021/09/09 08:42:14;;;;;;;15.65;13.82;;;28.20;70.90;;;;;;5068563;28;20076;-47
2021/09/09 08:44:40;;;;;;;19.35;17.27;;;28.30;68.60;;;;;;5068635;28;20044;-50
2021/09/09 08:47:10;;;;;;;19.30;16.65;;;28.80;68.30;;;;;;5064535;28;20040;-47
2021/09/09 08:49:37;;;;;;;19.30;17.48;;;29.10;66.40;;;;;;5066473;28;20137;-49
2021/09/09 08:52:06;;;;;;;14.45;13.15;;;29.40;66.40;;;;;;5066615;28;20053;-52
2021/09/09 08:54:33;;;;;;;14.55;13.15;;;29.70;64.90;;;;;;5065841;28;20151;-46
2021/09/09 08:56:59;;;;;;;16.70;15.18;;;29.40;65.30;;;;;;5068765;28;20094;-48
2021/09/09 08:59:26;;;;;;;17.20;15.50;;;29.50;63.20;;;;;;5068347;28;20044;-48
2021/09/09 09:02:02;;;;;;;19.10;17.15;;;29.30;61.40;;;;;;5066206;28;20382;-49
2021/09/09 09:04:30;;;;;;;15.20;13.55;;;29.20;61.40;;;;;;5066544;28;20052;-49
2021/09/09 09:06:59;;;;;;;14.18;12.70;;;29.20;63.60;;;;;;5066550;28;20128;-47
2021/09/09 09:09:31;;;;;;;16.77;15.10;;;29.50;63.40;;;;;;5068599;28;20052;-49
2021/09/09 09:11:58;;;;;;;16.55;13.10;;;30.00;61.30;;;;;;5068091;28;20052;-47
2021/09/09 09:14:25;;;;;;;19.23;17.30;;;30.20;61.00;;;;;;5068220;28;20052;-57
2021/09/09 09:16:57;;;;;;;16.65;15.15;;;30.40;57.10;;;;;;5069847;28;20083;-57
2021/09/09 09:19:27;;;;;;;16.50;15.00;;;30.50;57.20;;;;;;5051354;28;20134;-56
2021/09/09 09:22:06;;;;;;;15.52;13.82;;;30.80;57.80;;;;;;5070027;28;20695;-56
2021/09/09 09:24:47;;;;;;;39.40;35.88;;;30.80;56.40;;;;;;5069879;28;20048;-57
2021/09/09 09:27:15;;;;;;;15.65;14.13;;;31.20;55.20;;;;;;5058807;28;20053;-56
2021/09/09 09:29:57;;;;;;;16.20;14.23;;;31.00;55.00;;;;;;5082128;28;20465;-56
2021/09/09 09:32:23;;;;;;;20.08;18.05;;;30.80;55.90;;;;;;5053218;28;20460;-56
2021/09/09 09:35:11;;;;;;;14.88;11.32;;;31.30;53.90;;;;;;5069738;28;20056;-57
2021/09/09 09:38:05;;;;;;;16.30;14.68;;;31.10;53.10;;;;;;5059818;28;20056;-57
2021/09/09 09:40:43;;;;;;;14.10;12.73;;;31.10;53.90;;;;;;5053162;28;20056;-57
2021/09/09 09:43:11;;;;;;;14.60;11.93;;;31.50;54.50;;;;;;5069594;28;20056;-57
2021/09/09 09:45:50;;;;;;;14.50;13.05;;;31.60;53.50;;;;;;5068911;28;20122;-57
2021/09/09 09:48:29;;;;;;;16.25;12.38;;;31.80;52.20;;;;;;5066536;28;20052;-57
2021/09/09 09:50:58;;;;;;;14.60;12.23;;;31.80;52.00;;;;;;5055672;28;20138;-53
2021/09/09 09:53:24;;;;;;;12.95;11.65;;;31.60;53.20;;;;;;5059554;28;20052;-58
2021/09/09 09:55:50;;;;;;;20.02;18.17;;;32.00;52.10;;;;;;5066011;28;20692;-57
2021/09/09 09:58:20;;;;;;;15.35;13.73;;;32.20;50.80;;;;;;5059952;28;20513;-56
2021/09/09 10:00:52;;;;;;;14.82;13.48;;;32.50;49.90;;;;;;5066743;28;20147;-53
2021/09/09 10:03:21;;;;;;;13.90;12.20;;;32.40;49.50;;;;;;5065310;28;20440;-54
2021/09/09 10:05:51;;;;;;;17.40;15.77;;;32.50;48.80;;;;;;5067981;28;20044;-55
2021/09/09 10:08:18;;;;;;;12.13;10.65;;;32.40;49.90;;;;;;5060595;28;20589;-52
2021/09/09 10:10:47;;;;;;;13.93;12.43;;;32.40;48.70;;;;;;5065857;28;20053;-55
2021/09/09 10:13:16;;;;;;;13.60;12.30;;;32.60;48.90;;;;;;5067990;28;20063;-54
2021/09/09 10:15:45;;;;;;;11.70;10.43;;;32.80;49.10;;;;;;5067591;28;20075;-54
2021/09/09 10:18:11;;;;;;;12.15;11.05;;;32.70;47.60;;;;;;5059251;28;20615;-54
2021/09/09 10:20:45;;;;;;;10.68;9.73;;;32.90;48.00;;;;;;5068041;28;20064;-53
2021/09/09 10:23:20;;;;;;;10.75;9.05;;;33.10;47.60;;;;;;5067722;28;20056;-51
2021/09/09 10:25:54;;;;;;;12.00;9.98;;;33.10;46.40;;;;;;5067926;28;20421;-53
2021/09/09 10:28:40;;;;;;;11.32;8.75;;;33.20;46.70;;;;;;5057019;28;20056;-54
2021/09/09 10:31:10;;;;;;;11.50;9.75;;;33.30;45.70;;;;;;5066411;28;20424;-50
2021/09/09 10:33:42;;;;;;;10.05;9.02;;;33.20;46.10;;;;;;5067491;28;20049;-53
2021/09/09 10:36:43;;;;;;;9.73;8.82;;;33.30;45.40;;;;;;5068001;28;20048;-53
2021/09/09 10:39:41;;;;;;;11.27;9.18;;;32.90;45.50;;;;;;5058262;28;20052;-51
2021/09/09 10:42:52;;;;;;;9.70;8.75;;;33.70;45.30;;;;;;5063995;28;20041;-53
2021/09/09 10:45:34;;;;;;;12.55;10.07;;;34.00;46.00;;;;;;5054195;28;20513;-57
2021/09/09 10:48:22;;;;;;;15.40;10.43;;;34.10;43.30;;;;;;5061094;28;20052;-56
2021/09/09 10:51:11;;;;;;;12.55;11.25;;;33.60;44.00;;;;;;5066639;28;20083;-57
2021/09/09 10:53:43;;;;;;;12.88;11.57;;;34.00;42.60;;;;;;5066840;28;20099;-60
2021/09/09 10:56:17;;;;;;;15.10;13.35;;;33.90;43.40;;;;;;5067415;28;20131;-58
2021/09/09 10:58:45;;;;;;;10.02;9.02;;;34.30;44.20;;;;;;5065314;28;20056;-58
2021/09/09 11:01:14;;;;;;;8.85;7.72;;;34.00;43.60;;;;;;5049829;28;20809;-57
2021/09/09 11:03:40;;;;;;;17.27;15.63;;;34.40;42.50;;;;;;5065270;28;20080;-58
2021/09/09 11:06:09;;;;;;;11.00;9.85;;;34.20;41.60;;;;;;5065612;28;20040;-57
2021/09/09 11:08:35;;;;;;;10.77;9.73;;;33.70;41.90;;;;;;5061214;28;20500;-57
2021/09/09 11:11:04;;;;;;;9.38;8.38;;;34.00;42.80;;;;;;5061408;28;20052;-58
2021/09/09 11:13:34;;;;;;;9.55;8.70;;;34.10;42.20;;;;;;5052006;28;20048;-58
2021/09/09 11:16:24;;;;;;;9.90;7.82;;;34.40;41.50;;;;;;5055961;28;20488;-57
2021/09/09 11:18:59;;;;;;;11.35;7.68;;;34.60;41.60;;;;;;5061451;28;20053;-57
2021/09/09 11:21:41;;;;;;;8.77;7.88;;;34.90;42.40;;;;;;5065667;28;20107;-57
2021/09/09 11:24:12;;;;;;;9.07;8.18;;;35.10;41.70;;;;;;5066291;28;20110;-57
2021/09/09 11:26:45;;;;;;;8.88;7.40;;;35.10;40.60;;;;;;5064801;28;20163;-57
2021/09/09 11:29:11;;;;;;;8.80;7.47;;;34.80;39.80;;;;;;5065969;28;20056;-58
2021/09/09 11:31:48;;;;;;;10.23;7.70;;;35.30;39.70;;;;;;5067315;28;20049;-58
2021/09/09 11:34:24;;;;;;;8.77;7.25;;;35.50;40.50;;;;;;5063169;28;20117;-58
2021/09/09 11:36:54;;;;;;;9.48;7.05;;;35.20;40.60;;;;;;5064727;28;20067;-58
2021/09/09 11:39:22;;;;;;;7.75;6.97;;;34.90;39.00;;;;;;5066363;28;20393;-57
2021/09/09 11:41:51;;;;;;;8.60;7.35;;;35.20;40.80;;;;;;5067033;28;20125;-57
2021/09/09 11:44:33;;;;;;;8.60;6.70;;;35.00;40.00;;;;;;5058052;28;20420;-58
2021/09/09 11:47:07;;;;;;;8.20;7.38;;;35.40;40.20;;;;;;5066102;28;20148;-57
2021/09/09 11:49:38;;;;;;;8.73;7.05;;;35.40;38.80;;;;;;5067102;28;20055;-57
2021/09/09 11:52:06;;;;;;;8.95;7.90;;;35.90;39.90;;;;;;5067811;28;20505;-58
2021/09/09 11:54:34;;;;;;;9.50;7.88;;;35.70;39.70;;;;;;5069260;28;20088;-58
2021/09/09 11:57:16;;;;;;;8.25;7.45;;;35.80;40.80;;;;;;5069894;28;20052;-60
2021/09/09 11:59:50;;;;;;;8.32;6.95;;;35.10;39.20;;;;;;5069365;28;20056;-57
2021/09/09 12:02:34;;;;;;;8.00;7.30;;;35.30;40.50;;;;;;5068798;28;20071;-57
2021/09/09 12:05:08;;;;;;;8.00;7.30;;;35.30;40.90;;;;;;5067331;28;20389;-57
2021/09/09 12:07:36;;;;;;;8.82;7.78;;;35.20;40.70;;;;;;5067582;28;20048;-57
2021/09/09 12:10:10;;;;;;;8.43;7.57;;;35.50;40.00;;;;;;5061497;28;20048;-57
2021/09/09 12:12:37;;;;;;;11.27;8.00;;;35.20;40.20;;;;;;5068400;28;20066;-57
2021/09/09 12:15:09;;;;;;;9.82;8.82;;;35.20;40.20;;;;;;5070368;28;20155;-58
2021/09/09 12:17:37;;;;;;;24.52;22.35;;;34.90;40.80;;;;;;5070680;28;20109;-57
2021/09/09 12:20:09;;;;;;;12.95;11.75;;;35.30;41.50;;;;;;5068956;28;20083;-57
2021/09/09 12:22:47;;;;;;;9.68;8.70;;;35.60;40.50;;;;;;5070461;28;20786;-57
2021/09/09 12:25:19;;;;;;;14.15;12.85;;;35.20;41.00;;;;;;5068839;28;20056;-57
2021/09/09 12:27:54;;;;;;;16.58;15.15;;;35.40;40.80;;;;;;5069468;28;20092;-56
2021/09/09 12:30:26;;;;;;;12.35;10.95;;;35.50;39.60;;;;;;5068489;28;20051;-56
2021/09/09 12:32:52;;;;;;;13.30;12.07;;;35.30;39.40;;;;;;5069406;28;20759;-57
2021/09/09 12:35:27;;;;;;;10.10;9.13;;;35.60;39.40;;;;;;5068289;28;20143;-56
2021/09/09 12:38:01;;;;;;;11.52;9.73;;;35.80;40.00;;;;;;5069860;28;20123;-57
2021/09/09 12:40:47;;;;;;;10.18;7.68;;;36.20;40.00;;;;;;5069244;28;20056;-54